Terminal Aerodrome Forecast
Issued by NWS Newport/Morehead City, NC

Home | Current Version | Previous Version | Graphics & Text | Print | Product List | Glossary On
Versions: 1 2 3 4 5 6 7 8 9 10 11 12 13 14 15 16 17 18 19
000
FTUS42 KMHX 201125
TAFEWN
TAF
KEWN 201125Z 2012/2112 10005KT P6SM BKN250
     FM201500 09005KT P6SM VCSH BKN030
     FM201900 15006KT P6SM BKN060
     FM210700 00000KT 2SM BR BKN250=

USA.gov is the U.S. government's official web portal to all federal, state and local government web resources and services.